CheckWX is a tool to help pilots better visualize weather data.  It is not intended as a substitute for an official pre-flight weather briefing.

05:43:05 UTC

KFDY TAF
Findlay Airport
Findlay, Ohio, USA
KFDY 280202Z 2802/2824 26011KT P6SM OVC050 TEMPO 2802/2804 27012KT BKN025 FM281500 28012G22KT P6SM SCT025 BKN035

Feb-28@
02:00 UTC

Feb-28 @ 02:00 UTC

Feb-28@
15:00 UTC

Feb-28 @ 15:00 UTC

KFDY 280202Z 2802/2824 26011KT P6SM OVC050
Wind
  • 260° at 11 KTS
Cloud Levels
  • Overcast at 5,000' AGL

Feb-28@
02:00 UTC

Feb-28 @ 02:00 UTC

Feb-28@
04:00 UTC

Feb-28 @ 04:00 UTC

TEMPO 2802/2804 27012KT BKN025

Expired

Wind
  • 270° at 12 KTS
Cloud Levels
  • Broken at 2,500' AGL

Feb-28@
15:00 UTC

Feb-28 @ 15:00 UTC

Feb-29@
00:00 UTC

Feb-29 @ 00:00 UTC

FM281500 28012G22KT P6SM SCT025 BKN035

From

From Standard forecast or significant change

Wind
  • 280° at 12 KTS
  • {Gusting to 22 KTS
Cloud Levels
  • Scattered at 2,500' AGL
  • Broken at 3,500' AGL